Terminal Aerodrome Forecast
Issued by NWS Amarillo, TX

Home | Current Version | Previous Version | Text Only | Print | Product List | Glossary On
Versions: 1 2 3 4 5 6 7 8 9 10 11 12 13 14 15 16 17 18 19 20 21
008
FTUS44 KAMA 241130
TAFDHT
TAF
KDHT 241130Z 2412/2512 11013KT 2SM BR OVC002
     FM241300 27012KT P6SM SCT012
     FM241600 30023G34KT P6SM SCT300
     FM242100 30015KT P6SM SKC
     FM250100 20008KT P6SM SKC
     FM250900 24010KT P6SM SKC=

USA.gov is the U.S. government's official web portal to all federal, state and local government web resources and services.